sensor_id;sensor_type;location;lat;lon;timestamp;temperature;humidity
75296;DHT22;64623;44.738;37.804;2023-05-07T00:00:33;21.54;117.12
75296;DHT22;64623;44.738;37.804;2023-05-07T00:01:36;21.55;117.13
75296;DHT22;64623;44.738;37.804;2023-05-07T00:02:39;21.55;117.11
75296;DHT22;64623;44.738;37.804;2023-05-07T00:03:42;21.54;117.10
75296;DHT22;64623;44.738;37.804;2023-05-07T00:04:45;21.54;117.12
75296;DHT22;64623;44.738;37.804;2023-05-07T00:05:48;21.55;117.05
75296;DHT22;64623;44.738;37.804;2023-05-07T00:06:52;21.57;117.15
75296;DHT22;64623;44.738;37.804;2023-05-07T00:07:54;21.54;117.12
75296;DHT22;64623;44.738;37.804;2023-05-07T00:08:58;21.55;117.13
75296;DHT22;64623;44.738;37.804;2023-05-07T00:10:02;21.54;117.21
75296;DHT22;64623;44.738;37.804;2023-05-07T00:11:05;21.54;117.18
75296;DHT22;64623;44.738;37.804;2023-05-07T00:12:08;21.54;117.20
75296;DHT22;64623;44.738;37.804;2023-05-07T00:13:11;21.54;117.15
75296;DHT22;64623;44.738;37.804;2023-05-07T00:14:13;21.54;117.22
75296;DHT22;64623;44.738;37.804;2023-05-07T00:15:16;21.54;117.18
75296;DHT22;64623;44.738;37.804;2023-05-07T00:16:19;21.54;117.15
75296;DHT22;64623;44.738;37.804;2023-05-07T00:17:22;21.55;116.99
75296;DHT22;64623;44.738;37.804;2023-05-07T00:18:25;21.54;117.10
75296;DHT22;64623;44.738;37.804;2023-05-07T00:19:28;21.54;117.08
75296;DHT22;64623;44.738;37.804;2023-05-07T00:20:30;21.54;117.09
75296;DHT22;64623;44.738;37.804;2023-05-07T00:21:33;21.54;117.09
75296;DHT22;64623;44.738;37.804;2023-05-07T00:22:36;21.54;117.15
75296;DHT22;64623;44.738;37.804;2023-05-07T00:23:40;21.54;117.15
75296;DHT22;64623;44.738;37.804;2023-05-07T00:24:42;21.53;117.19
75296;DHT22;64623;44.738;37.804;2023-05-07T00:25:45;21.53;117.21
75296;DHT22;64623;44.738;37.804;2023-05-07T00:26:48;21.53;117.22
75296;DHT22;64623;44.738;37.804;2023-05-07T00:27:51;21.54;117.14
75296;DHT22;64623;44.738;37.804;2023-05-07T00:28:53;21.53;117.24
75296;DHT22;64623;44.738;37.804;2023-05-07T00:29:56;21.54;117.15
75296;DHT22;64623;44.738;37.804;2023-05-07T00:30:59;21.52;117.16
75296;DHT22;64623;44.738;37.804;2023-05-07T00:32:02;21.53;117.28
75296;DHT22;64623;44.738;37.804;2023-05-07T00:33:05;21.53;117.25
75296;DHT22;64623;44.738;37.804;2023-05-07T00:34:08;21.53;117.32
75296;DHT22;64623;44.738;37.804;2023-05-07T00:35:11;21.52;117.33
75296;DHT22;64623;44.738;37.804;2023-05-07T00:36:14;21.52;117.39
75296;DHT22;64623;44.738;37.804;2023-05-07T00:37:16;21.51;117.24
75296;DHT22;64623;44.738;37.804;2023-05-07T00:38:20;21.52;117.30
75296;DHT22;64623;44.738;37.804;2023-05-07T00:39:22;21.52;117.31
75296;DHT22;64623;44.738;37.804;2023-05-07T00:40:25;21.52;117.70
75296;DHT22;64623;44.738;37.804;2023-05-07T00:41:28;21.52;118.24
75296;DHT22;64623;44.738;37.804;2023-05-07T00:42:31;21.51;118.75
75296;DHT22;64623;44.738;37.804;2023-05-07T00:43:34;21.52;118.51
75296;DHT22;64623;44.738;37.804;2023-05-07T00:44:37;21.51;117.99
75296;DHT22;64623;44.738;37.804;2023-05-07T00:45:40;21.51;118.11
75296;DHT22;64623;44.738;37.804;2023-05-07T00:46:43;21.51;118.20
75296;DHT22;64623;44.738;37.804;2023-05-07T00:47:47;21.51;118.05
75296;DHT22;64623;44.738;37.804;2023-05-07T00:48:51;21.51;118.35
75296;DHT22;64623;44.738;37.804;2023-05-07T00:49:54;21.52;118.99
75296;DHT22;64623;44.738;37.804;2023-05-07T00:50:57;21.51;118.99
75296;DHT22;64623;44.738;37.804;2023-05-07T00:52:00;21.50;118.99
75296;DHT22;64623;44.738;37.804;2023-05-07T00:53:04;21.52;118.99
75296;DHT22;64623;44.738;37.804;2023-05-07T00:54:07;21.51;118.99
75296;DHT22;64623;44.738;37.804;2023-05-07T00:55:10;21.51;118.99
75296;DHT22;64623;44.738;37.804;2023-05-07T00:56:14;21.50;118.99
75296;DHT22;64623;44.738;37.804;2023-05-07T00:57:17;21.51;118.99
75296;DHT22;64623;44.738;37.804;2023-05-07T00:58:21;21.51;118.99
75296;DHT22;64623;44.738;37.804;2023-05-07T00:59:23;21.50;118.99
75296;DHT22;64623;44.738;37.804;2023-05-07T01:00:26;21.50;118.99
75296;DHT22;64623;44.738;37.804;2023-05-07T01:01:31;21.49;118.99
75296;DHT22;64623;44.738;37.804;2023-05-07T01:02:38;21.50;118.99
75296;DHT22;64623;44.738;37.804;2023-05-07T01:03:41;21.49;118.99
75296;DHT22;64623;44.738;37.804;2023-05-07T01:04:43;21.50;118.99
75296;DHT22;64623;44.738;37.804;2023-05-07T01:05:47;21.51;118.99
75296;DHT22;64623;44.738;37.804;2023-05-07T01:06:51;21.50;118.99
75296;DHT22;64623;44.738;37.804;2023-05-07T01:07:55;21.50;118.99
75296;DHT22;64623;44.738;37.804;2023-05-07T01:08:59;21.50;118.99
75296;DHT22;64623;44.738;37.804;2023-05-07T01:10:04;21.51;118.99
75296;DHT22;64623;44.738;37.804;2023-05-07T01:11:08;21.51;118.99
75296;DHT22;64623;44.738;37.804;2023-05-07T01:12:11;21.50;118.99
75296;DHT22;64623;44.738;37.804;2023-05-07T01:13:14;21.51;118.99
75296;DHT22;64623;44.738;37.804;2023-05-07T01:14:18;21.50;118.99
75296;DHT22;64623;44.738;37.804;2023-05-07T01:15:21;21.51;118.99
75296;DHT22;64623;44.738;37.804;2023-05-07T01:16:25;21.50;118.99
75296;DHT22;64623;44.738;37.804;2023-05-07T01:17:27;21.52;118.99
75296;DHT22;64623;44.738;37.804;2023-05-07T01:18:30;21.50;118.99
75296;DHT22;64623;44.738;37.804;2023-05-07T01:19:33;21.49;118.99
75296;DHT22;64623;44.738;37.804;2023-05-07T01:20:37;21.50;118.99
75296;DHT22;64623;44.738;37.804;2023-05-07T01:21:45;21.49;118.99
75296;DHT22;64623;44.738;37.804;2023-05-07T01:22:49;21.51;118.99
75296;DHT22;64623;44.738;37.804;2023-05-07T01:23:53;21.49;118.99
75296;DHT22;64623;44.738;37.804;2023-05-07T01:24:58;21.50;118.99
75296;DHT22;64623;44.738;37.804;2023-05-07T01:26:03;21.50;118.99
75296;DHT22;64623;44.738;37.804;2023-05-07T01:27:07;21.49;118.99
75296;DHT22;64623;44.738;37.804;2023-05-07T01:28:11;21.49;118.99
75296;DHT22;64623;44.738;37.804;2023-05-07T01:29:16;21.48;118.93
75296;DHT22;64623;44.738;37.804;2023-05-07T01:30:21;21.48;118.82
75296;DHT22;64623;44.738;37.804;2023-05-07T01:31:25;21.50;118.89
75296;DHT22;64623;44.738;37.804;2023-05-07T01:32:36;21.49;118.99
75296;DHT22;64623;44.738;37.804;2023-05-07T01:33:41;21.48;118.98
75296;DHT22;64623;44.738;37.804;2023-05-07T01:34:48;21.48;118.95
75296;DHT22;64623;44.738;37.804;2023-05-07T01:35:53;21.49;118.99
75296;DHT22;64623;44.738;37.804;2023-05-07T01:36:56;21.49;118.99
75296;DHT22;64623;44.738;37.804;2023-05-07T01:38:00;21.49;118.99
75296;DHT22;64623;44.738;37.804;2023-05-07T01:39:05;21.48;118.97
75296;DHT22;64623;44.738;37.804;2023-05-07T01:40:09;21.49;118.99
75296;DHT22;64623;44.738;37.804;2023-05-07T01:41:12;21.48;118.99
75296;DHT22;64623;44.738;37.804;2023-05-07T01:42:16;21.48;118.95
75296;DHT22;64623;44.738;37.804;2023-05-07T01:43:19;21.48;118.88
75296;DHT22;64623;44.738;37.804;2023-05-07T01:44:22;21.48;118.89
75296;DHT22;64623;44.738;37.804;2023-05-07T01:45:26;21.49;118.81
75296;DHT22;64623;44.738;37.804;2023-05-07T01:46:29;21.49;118.78
75296;DHT22;64623;44.738;37.804;2023-05-07T01:47:33;21.48;118.86
75296;DHT22;64623;44.738;37.804;2023-05-07T01:48:42;21.48;118.80
75296;DHT22;64623;44.738;37.804;2023-05-07T01:49:48;21.48;118.83
75296;DHT22;64623;44.738;37.804;2023-05-07T01:50:51;21.48;118.76
75296;DHT22;64623;44.738;37.804;2023-05-07T01:51:54;21.49;118.71
75296;DHT22;64623;44.738;37.804;2023-05-07T01:52:58;21.47;118.74
75296;DHT22;64623;44.738;37.804;2023-05-07T01:54:01;21.48;118.73
75296;DHT22;64623;44.738;37.804;2023-05-07T01:55:05;21.48;118.60
75296;DHT22;64623;44.738;37.804;2023-05-07T01:56:08;21.47;118.57
75296;DHT22;64623;44.738;37.804;2023-05-07T01:57:13;21.47;118.74
75296;DHT22;64623;44.738;37.804;2023-05-07T01:58:16;21.48;118.84
75296;DHT22;64623;44.738;37.804;2023-05-07T01:59:19;21.47;118.81
75296;DHT22;64623;44.738;37.804;2023-05-07T02:00:22;21.46;118.78
75296;DHT22;64623;44.738;37.804;2023-05-07T02:01:25;21.46;118.76
75296;DHT22;64623;44.738;37.804;2023-05-07T02:02:28;21.47;118.63
75296;DHT22;64623;44.738;37.804;2023-05-07T02:03:32;21.47;118.65
75296;DHT22;64623;44.738;37.804;2023-05-07T02:04:43;21.47;118.64
75296;DHT22;64623;44.738;37.804;2023-05-07T02:05:46;21.46;118.60
75296;DHT22;64623;44.738;37.804;2023-05-07T02:06:57;21.46;118.57
75296;DHT22;64623;44.738;37.804;2023-05-07T02:07:59;21.46;118.54
75296;DHT22;64623;44.738;37.804;2023-05-07T02:09:04;21.46;118.50
75296;DHT22;64623;44.738;37.804;2023-05-07T02:10:07;21.46;118.59
75296;DHT22;64623;44.738;37.804;2023-05-07T02:11:11;21.47;118.53
75296;DHT22;64623;44.738;37.804;2023-05-07T02:12:13;21.45;118.42
75296;DHT22;64623;44.738;37.804;2023-05-07T02:13:16;21.47;118.38
75296;DHT22;64623;44.738;37.804;2023-05-07T02:14:19;21.46;118.44
75296;DHT22;64623;44.738;37.804;2023-05-07T02:15:23;21.46;118.50
75296;DHT22;64623;44.738;37.804;2023-05-07T02:16:26;21.45;118.53
75296;DHT22;64623;44.738;37.804;2023-05-07T02:17:30;21.46;118.44
75296;DHT22;64623;44.738;37.804;2023-05-07T02:18:34;21.46;118.50
75296;DHT22;64623;44.738;37.804;2023-05-07T02:19:38;21.46;118.56
75296;DHT22;64623;44.738;37.804;2023-05-07T02:20:41;21.45;118.50
75296;DHT22;64623;44.738;37.804;2023-05-07T02:21:43;21.46;118.60
75296;DHT22;64623;44.738;37.804;2023-05-07T02:22:46;21.46;118.59
75296;DHT22;64623;44.738;37.804;2023-05-07T02:23:49;21.46;118.52
75296;DHT22;64623;44.738;37.804;2023-05-07T02:24:52;21.45;118.42
75296;DHT22;64623;44.738;37.804;2023-05-07T02:25:55;21.47;118.38
75296;DHT22;64623;44.738;37.804;2023-05-07T02:26:58;21.48;118.21
75296;DHT22;64623;44.738;37.804;2023-05-07T02:28:01;21.47;118.53
75296;DHT22;64623;44.738;37.804;2023-05-07T02:29:26;21.46;118.57
75296;DHT22;64623;44.738;37.804;2023-05-07T02:30:29;21.46;118.66
75296;DHT22;64623;44.738;37.804;2023-05-07T02:31:33;21.46;118.56
75296;DHT22;64623;44.738;37.804;2023-05-07T02:32:38;21.46;118.71
75296;DHT22;64623;44.738;37.804;2023-05-07T02:33:42;21.46;118.79
75296;DHT22;64623;44.738;37.804;2023-05-07T02:34:45;21.46;118.57
75296;DHT22;64623;44.738;37.804;2023-05-07T02:35:48;21.46;118.99
75296;DHT22;64623;44.738;37.804;2023-05-07T02:36:51;21.46;118.99
75296;DHT22;64623;44.738;37.804;2023-05-07T02:37:57;21.45;118.99
75296;DHT22;64623;44.738;37.804;2023-05-07T02:39:00;21.45;118.99
75296;DHT22;64623;44.738;37.804;2023-05-07T02:40:03;21.45;118.99
75296;DHT22;64623;44.738;37.804;2023-05-07T02:41:06;21.46;118.99
75296;DHT22;64623;44.738;37.804;2023-05-07T02:42:09;21.46;118.99
75296;DHT22;64623;44.738;37.804;2023-05-07T02:43:12;21.46;118.99
75296;DHT22;64623;44.738;37.804;2023-05-07T02:44:18;21.44;118.99
75296;DHT22;64623;44.738;37.804;2023-05-07T02:45:24;21.44;118.99
75296;DHT22;64623;44.738;37.804;2023-05-07T02:46:29;21.45;118.99
75296;DHT22;64623;44.738;37.804;2023-05-07T02:47:36;21.45;118.99
75296;DHT22;64623;44.738;37.804;2023-05-07T02:48:39;21.44;118.99
75296;DHT22;64623;44.738;37.804;2023-05-07T02:49:42;21.44;118.99
75296;DHT22;64623;44.738;37.804;2023-05-07T02:50:45;21.44;118.99
75296;DHT22;64623;44.738;37.804;2023-05-07T02:51:49;21.45;118.99
75296;DHT22;64623;44.738;37.804;2023-05-07T02:52:56;21.43;118.99
75296;DHT22;64623;44.738;37.804;2023-05-07T02:53:59;21.46;118.99
75296;DHT22;64623;44.738;37.804;2023-05-07T02:55:04;21.45;118.99
75296;DHT22;64623;44.738;37.804;2023-05-07T02:56:07;21.43;118.99
75296;DHT22;64623;44.738;37.804;2023-05-07T02:57:10;21.45;118.99
75296;DHT22;64623;44.738;37.804;2023-05-07T02:58:13;21.44;118.99
75296;DHT22;64623;44.738;37.804;2023-05-07T02:59:16;21.44;118.99
75296;DHT22;64623;44.738;37.804;2023-05-07T03:00:20;21.44;118.99
75296;DHT22;64623;44.738;37.804;2023-05-07T03:01:39;21.44;118.99
75296;DHT22;64623;44.738;37.804;2023-05-07T03:02:44;21.43;118.99
75296;DHT22;64623;44.738;37.804;2023-05-07T03:03:46;21.44;118.99
75296;DHT22;64623;44.738;37.804;2023-05-07T03:04:49;21.45;118.99
75296;DHT22;64623;44.738;37.804;2023-05-07T03:05:52;21.44;118.99
75296;DHT22;64623;44.738;37.804;2023-05-07T03:06:55;21.44;118.99
75296;DHT22;64623;44.738;37.804;2023-05-07T03:07:58;21.44;118.99
75296;DHT22;64623;44.738;37.804;2023-05-07T03:09:02;21.43;118.99
75296;DHT22;64623;44.738;37.804;2023-05-07T03:10:05;21.43;118.99
75296;DHT22;64623;44.738;37.804;2023-05-07T03:11:08;21.43;118.99
75296;DHT22;64623;44.738;37.804;2023-05-07T03:12:11;21.44;118.99
75296;DHT22;64623;44.738;37.804;2023-05-07T03:13:14;21.43;118.99
75296;DHT22;64623;44.738;37.804;2023-05-07T03:14:17;21.43;118.99
75296;DHT22;64623;44.738;37.804;2023-05-07T03:15:20;21.43;118.99
75296;DHT22;64623;44.738;37.804;2023-05-07T03:16:23;21.43;118.99
75296;DHT22;64623;44.738;37.804;2023-05-07T03:17:26;21.43;118.99
75296;DHT22;64623;44.738;37.804;2023-05-07T03:18:28;21.43;118.99
75296;DHT22;64623;44.738;37.804;2023-05-07T03:19:31;21.42;118.99
75296;DHT22;64623;44.738;37.804;2023-05-07T03:20:34;21.43;118.99
75296;DHT22;64623;44.738;37.804;2023-05-07T03:21:38;21.44;118.99
75296;DHT22;64623;44.738;37.804;2023-05-07T03:22:41;21.42;118.99
75296;DHT22;64623;44.738;37.804;2023-05-07T03:23:44;21.43;118.99
75296;DHT22;64623;44.738;37.804;2023-05-07T03:24:48;21.43;118.99
75296;DHT22;64623;44.738;37.804;2023-05-07T03:25:50;21.42;118.99
75296;DHT22;64623;44.738;37.804;2023-05-07T03:26:53;21.43;118.99
75296;DHT22;64623;44.738;37.804;2023-05-07T03:27:56;21.42;118.99
75296;DHT22;64623;44.738;37.804;2023-05-07T03:29:05;21.42;118.99
75296;DHT22;64623;44.738;37.804;2023-05-07T03:30:09;21.42;118.99
75296;DHT22;64623;44.738;37.804;2023-05-07T03:31:12;21.42;118.99
75296;DHT22;64623;44.738;37.804;2023-05-07T03:32:15;21.42;118.99
75296;DHT22;64623;44.738;37.804;2023-05-07T03:33:18;21.42;118.99
75296;DHT22;64623;44.738;37.804;2023-05-07T03:34:21;21.43;118.99
75296;DHT22;64623;44.738;37.804;2023-05-07T03:35:24;21.43;118.99
75296;DHT22;64623;44.738;37.804;2023-05-07T03:36:27;21.44;118.99
75296;DHT22;64623;44.738;37.804;2023-05-07T03:37:31;21.44;118.99
75296;DHT22;64623;44.738;37.804;2023-05-07T03:38:37;21.44;118.99
75296;DHT22;64623;44.738;37.804;2023-05-07T03:39:41;21.44;118.99
75296;DHT22;64623;44.738;37.804;2023-05-07T03:40:46;21.43;118.99
75296;DHT22;64623;44.738;37.804;2023-05-07T03:41:49;21.44;118.93
75296;DHT22;64623;44.738;37.804;2023-05-07T03:42:52;21.43;118.99
75296;DHT22;64623;44.738;37.804;2023-05-07T03:43:58;21.45;118.99
75296;DHT22;64623;44.738;37.804;2023-05-07T03:45:01;21.43;118.99
75296;DHT22;64623;44.738;37.804;2023-05-07T03:46:05;21.44;118.99
75296;DHT22;64623;44.738;37.804;2023-05-07T03:47:08;21.44;118.89
75296;DHT22;64623;44.738;37.804;2023-05-07T03:48:13;21.45;118.99
75296;DHT22;64623;44.738;37.804;2023-05-07T03:49:17;21.45;118.99
75296;DHT22;64623;44.738;37.804;2023-05-07T03:50:19;21.46;118.99
75296;DHT22;64623;44.738;37.804;2023-05-07T03:51:22;21.45;118.99
75296;DHT22;64623;44.738;37.804;2023-05-07T03:52:25;21.46;118.99
75296;DHT22;64623;44.738;37.804;2023-05-07T03:53:31;21.45;118.99
75296;DHT22;64623;44.738;37.804;2023-05-07T03:54:34;21.46;118.99
75296;DHT22;64623;44.738;37.804;2023-05-07T03:55:37;21.46;118.99
75296;DHT22;64623;44.738;37.804;2023-05-07T03:56:41;21.45;118.99
75296;DHT22;64623;44.738;37.804;2023-05-07T03:57:45;21.45;118.99
75296;DHT22;64623;44.738;37.804;2023-05-07T03:58:48;21.46;118.99
75296;DHT22;64623;44.738;37.804;2023-05-07T03:59:51;21.46;118.99
75296;DHT22;64623;44.738;37.804;2023-05-07T04:00:53;21.45;118.99
75296;DHT22;64623;44.738;37.804;2023-05-07T04:02:01;21.45;118.99
75296;DHT22;64623;44.738;37.804;2023-05-07T04:03:06;21.46;118.99
75296;DHT22;64623;44.738;37.804;2023-05-07T04:04:09;21.47;118.86
75296;DHT22;64623;44.738;37.804;2023-05-07T04:05:12;21.46;118.99
75296;DHT22;64623;44.738;37.804;2023-05-07T04:06:17;21.47;118.99
75296;DHT22;64623;44.738;37.804;2023-05-07T04:07:22;21.46;118.99
75296;DHT22;64623;44.738;37.804;2023-05-07T04:08:26;21.47;118.99
75296;DHT22;64623;44.738;37.804;2023-05-07T04:09:29;21.47;118.99
75296;DHT22;64623;44.738;37.804;2023-05-07T04:10:32;21.48;118.99
75296;DHT22;64623;44.738;37.804;2023-05-07T04:11:40;21.46;118.99
75296;DHT22;64623;44.738;37.804;2023-05-07T04:12:45;21.45;118.99
75296;DHT22;64623;44.738;37.804;2023-05-07T04:13:51;21.47;118.99
75296;DHT22;64623;44.738;37.804;2023-05-07T04:14:57;21.47;118.99
75296;DHT22;64623;44.738;37.804;2023-05-07T04:16:06;21.47;118.99
75296;DHT22;64623;44.738;37.804;2023-05-07T04:17:10;21.47;118.99
75296;DHT22;64623;44.738;37.804;2023-05-07T04:18:13;21.48;118.99
75296;DHT22;64623;44.738;37.804;2023-05-07T04:19:18;21.48;118.99
75296;DHT22;64623;44.738;37.804;2023-05-07T04:20:25;21.47;118.99
75296;DHT22;64623;44.738;37.804;2023-05-07T04:21:37;21.46;118.99
75296;DHT22;64623;44.738;37.804;2023-05-07T04:22:39;21.47;118.99
75296;DHT22;64623;44.738;37.804;2023-05-07T04:23:42;21.48;118.99
75296;DHT22;64623;44.738;37.804;2023-05-07T04:24:47;21.47;118.99
75296;DHT22;64623;44.738;37.804;2023-05-07T04:25:50;21.49;118.99
75296;DHT22;64623;44.738;37.804;2023-05-07T04:27:05;21.47;118.99
75296;DHT22;64623;44.738;37.804;2023-05-07T04:28:08;21.47;118.99
75296;DHT22;64623;44.738;37.804;2023-05-07T04:29:12;21.48;118.99
75296;DHT22;64623;44.738;37.804;2023-05-07T04:30:15;21.49;118.99
75296;DHT22;64623;44.738;37.804;2023-05-07T04:31:19;21.49;118.99
75296;DHT22;64623;44.738;37.804;2023-05-07T04:32:26;21.48;118.99
75296;DHT22;64623;44.738;37.804;2023-05-07T04:33:31;21.49;118.99
75296;DHT22;64623;44.738;37.804;2023-05-07T04:34:34;21.49;118.99
75296;DHT22;64623;44.738;37.804;2023-05-07T04:35:37;21.48;118.99
75296;DHT22;64623;44.738;37.804;2023-05-07T04:36:42;21.48;118.99
75296;DHT22;64623;44.738;37.804;2023-05-07T04:37:47;21.48;118.99
75296;DHT22;64623;44.738;37.804;2023-05-07T04:38:50;21.49;118.99
75296;DHT22;64623;44.738;37.804;2023-05-07T04:39:54;21.49;118.99
75296;DHT22;64623;44.738;37.804;2023-05-07T04:41:02;21.50;118.99
75296;DHT22;64623;44.738;37.804;2023-05-07T04:42:05;21.50;118.99
75296;DHT22;64623;44.738;37.804;2023-05-07T04:43:11;21.49;118.99
75296;DHT22;64623;44.738;37.804;2023-05-07T04:44:19;21.50;118.99
75296;DHT22;64623;44.738;37.804;2023-05-07T04:45:23;21.51;118.99
75296;DHT22;64623;44.738;37.804;2023-05-07T04:46:28;21.50;118.99
75296;DHT22;64623;44.738;37.804;2023-05-07T04:47:32;21.50;118.99
75296;DHT22;64623;44.738;37.804;2023-05-07T04:48:36;21.50;118.99
75296;DHT22;64623;44.738;37.804;2023-05-07T04:49:40;21.50;118.99
75296;DHT22;64623;44.738;37.804;2023-05-07T04:50:47;21.50;118.99
75296;DHT22;64623;44.738;37.804;2023-05-07T04:51:51;21.51;118.99
75296;DHT22;64623;44.738;37.804;2023-05-07T04:52:56;21.50;118.99
75296;DHT22;64623;44.738;37.804;2023-05-07T04:53:59;21.50;118.99
75296;DHT22;64623;44.738;37.804;2023-05-07T04:55:04;21.51;118.99
75296;DHT22;64623;44.738;37.804;2023-05-07T04:56:11;21.49;118.99
75296;DHT22;64623;44.738;37.804;2023-05-07T04:57:17;21.51;118.99
75296;DHT22;64623;44.738;37.804;2023-05-07T04:58:20;21.51;118.99
75296;DHT22;64623;44.738;37.804;2023-05-07T04:59:23;21.51;118.99
75296;DHT22;64623;44.738;37.804;2023-05-07T05:00:26;21.51;118.99
75296;DHT22;64623;44.738;37.804;2023-05-07T05:01:30;21.51;118.99
75296;DHT22;64623;44.738;37.804;2023-05-07T05:02:33;21.52;118.99
75296;DHT22;64623;44.738;37.804;2023-05-07T05:03:36;21.51;118.99
75296;DHT22;64623;44.738;37.804;2023-05-07T05:04:39;21.51;118.99
75296;DHT22;64623;44.738;37.804;2023-05-07T05:05:41;21.50;118.99
75296;DHT22;64623;44.738;37.804;2023-05-07T05:06:44;21.52;118.99
75296;DHT22;64623;44.738;37.804;2023-05-07T05:07:48;21.52;118.99
75296;DHT22;64623;44.738;37.804;2023-05-07T05:08:51;21.51;118.99
75296;DHT22;64623;44.738;37.804;2023-05-07T05:09:55;21.51;118.99
75296;DHT22;64623;44.738;37.804;2023-05-07T05:11:01;21.51;118.99
75296;DHT22;64623;44.738;37.804;2023-05-07T05:12:06;21.53;118.99
75296;DHT22;64623;44.738;37.804;2023-05-07T05:13:11;21.50;118.99
75296;DHT22;64623;44.738;37.804;2023-05-07T05:14:16;21.52;118.99
75296;DHT22;64623;44.738;37.804;2023-05-07T05:15:19;21.51;118.99
75296;DHT22;64623;44.738;37.804;2023-05-07T05:16:22;21.52;118.99
75296;DHT22;64623;44.738;37.804;2023-05-07T05:17:25;21.51;118.99
75296;DHT22;64623;44.738;37.804;2023-05-07T05:18:28;21.52;118.99
75296;DHT22;64623;44.738;37.804;2023-05-07T05:19:33;21.52;118.99
75296;DHT22;64623;44.738;37.804;2023-05-07T05:20:36;21.52;118.99
75296;DHT22;64623;44.738;37.804;2023-05-07T05:21:38;21.51;118.99
75296;DHT22;64623;44.738;37.804;2023-05-07T05:22:44;21.52;118.99
75296;DHT22;64623;44.738;37.804;2023-05-07T05:23:48;21.51;118.99
75296;DHT22;64623;44.738;37.804;2023-05-07T05:24:54;21.52;118.99
75296;DHT22;64623;44.738;37.804;2023-05-07T05:25:57;21.52;118.99
75296;DHT22;64623;44.738;37.804;2023-05-07T05:27:03;21.52;118.99
75296;DHT22;64623;44.738;37.804;2023-05-07T05:28:06;21.53;118.99
75296;DHT22;64623;44.738;37.804;2023-05-07T05:29:09;21.54;118.99
75296;DHT22;64623;44.738;37.804;2023-05-07T05:30:15;21.54;118.99
75296;DHT22;64623;44.738;37.804;2023-05-07T05:31:20;21.54;118.99
75296;DHT22;64623;44.738;37.804;2023-05-07T05:32:28;21.54;118.99
75296;DHT22;64623;44.738;37.804;2023-05-07T05:33:31;21.55;118.82
75296;DHT22;64623;44.738;37.804;2023-05-07T05:34:38;21.54;118.99
75296;DHT22;64623;44.738;37.804;2023-05-07T05:35:41;21.53;118.99
75296;DHT22;64623;44.738;37.804;2023-05-07T05:36:46;21.55;118.93
75296;DHT22;64623;44.738;37.804;2023-05-07T05:37:50;21.54;118.99
75296;DHT22;64623;44.738;37.804;2023-05-07T05:38:53;21.54;118.99
75296;DHT22;64623;44.738;37.804;2023-05-07T05:39:57;21.54;118.99
75296;DHT22;64623;44.738;37.804;2023-05-07T05:41:01;21.55;118.99
75296;DHT22;64623;44.738;37.804;2023-05-07T05:42:05;21.55;118.99
75296;DHT22;64623;44.738;37.804;2023-05-07T05:43:10;21.55;118.99
75296;DHT22;64623;44.738;37.804;2023-05-07T05:44:13;21.55;118.89
75296;DHT22;64623;44.738;37.804;2023-05-07T05:45:17;21.57;118.99
75296;DHT22;64623;44.738;37.804;2023-05-07T05:46:20;21.55;118.86
75296;DHT22;64623;44.738;37.804;2023-05-07T05:47:25;21.55;118.83
75296;DHT22;64623;44.738;37.804;2023-05-07T05:48:30;21.54;118.87
75296;DHT22;64623;44.738;37.804;2023-05-07T05:49:35;21.57;118.99
75296;DHT22;64623;44.738;37.804;2023-05-07T05:50:39;21.57;118.73
75296;DHT22;64623;44.738;37.804;2023-05-07T05:51:43;21.57;118.68
75296;DHT22;64623;44.738;37.804;2023-05-07T05:52:46;21.57;118.51
75296;DHT22;64623;44.738;37.804;2023-05-07T05:53:51;21.58;118.47
75296;DHT22;64623;44.738;37.804;2023-05-07T05:54:54;21.58;117.90
75296;DHT22;64623;44.738;37.804;2023-05-07T05:55:57;21.57;117.96
75296;DHT22;64623;44.738;37.804;2023-05-07T05:57:00;21.58;117.64
75296;DHT22;64623;44.738;37.804;2023-05-07T05:58:06;21.57;117.83
75296;DHT22;64623;44.738;37.804;2023-05-07T05:59:13;21.58;117.34
75296;DHT22;64623;44.738;37.804;2023-05-07T06:00:16;21.58;117.44
75296;DHT22;64623;44.738;37.804;2023-05-07T06:01:22;21.58;117.33
75296;DHT22;64623;44.738;37.804;2023-05-07T06:02:26;21.58;117.15
75296;DHT22;64623;44.738;37.804;2023-05-07T06:03:29;21.57;116.84
75296;DHT22;64623;44.738;37.804;2023-05-07T06:04:35;21.58;116.69
75296;DHT22;64623;44.738;37.804;2023-05-07T06:05:38;21.58;116.75
75296;DHT22;64623;44.738;37.804;2023-05-07T06:06:41;21.58;116.93
75296;DHT22;64623;44.738;37.804;2023-05-07T06:07:44;21.58;116.78
75296;DHT22;64623;44.738;37.804;2023-05-07T06:08:47;21.58;116.69
75296;DHT22;64623;44.738;37.804;2023-05-07T06:09:55;21.58;116.34
75296;DHT22;64623;44.738;37.804;2023-05-07T06:10:58;21.57;116.22
75296;DHT22;64623;44.738;37.804;2023-05-07T06:12:04;21.57;116.18
75296;DHT22;64623;44.738;37.804;2023-05-07T06:13:07;21.58;115.93
75296;DHT22;64623;44.738;37.804;2023-05-07T06:14:11;21.57;115.89
75296;DHT22;64623;44.738;37.804;2023-05-07T06:15:14;21.58;115.83
75296;DHT22;64623;44.738;37.804;2023-05-07T06:16:18;21.59;115.77
75296;DHT22;64623;44.738;37.804;2023-05-07T06:17:21;21.57;115.72
75296;DHT22;64623;44.738;37.804;2023-05-07T06:18:25;21.55;115.77
75296;DHT22;64623;44.738;37.804;2023-05-07T06:19:28;21.58;115.83
75296;DHT22;64623;44.738;37.804;2023-05-07T06:20:32;21.57;115.69
75296;DHT22;64623;44.738;37.804;2023-05-07T06:21:38;21.58;115.55
75296;DHT22;64623;44.738;37.804;2023-05-07T06:22:42;21.57;115.44
75296;DHT22;64623;44.738;37.804;2023-05-07T06:23:46;21.57;115.49
75296;DHT22;64623;44.738;37.804;2023-05-07T06:24:49;21.58;115.06
75296;DHT22;64623;44.738;37.804;2023-05-07T06:25:52;21.58;114.85
75296;DHT22;64623;44.738;37.804;2023-05-07T06:26:58;21.58;115.12
75296;DHT22;64623;44.738;37.804;2023-05-07T06:28:02;21.58;115.18
75296;DHT22;64623;44.738;37.804;2023-05-07T06:29:07;21.59;115.17
75296;DHT22;64623;44.738;37.804;2023-05-07T06:30:10;21.59;115.20
75296;DHT22;64623;44.738;37.804;2023-05-07T06:31:15;21.58;115.22
75296;DHT22;64623;44.738;37.804;2023-05-07T06:32:23;21.59;115.08